createdAt,value
2023-05-04T00:00:54.284Z,9.30
2023-05-04T00:03:29.137Z,9.30
2023-05-04T00:06:04.281Z,9.20
2023-05-04T00:08:41.395Z,9.30
2023-05-04T00:11:18.871Z,9.20
2023-05-04T00:14:24.502Z,9.30
2023-05-04T00:16:59.365Z,9.20
2023-05-04T00:19:34.385Z,9.20
2023-05-04T00:22:08.542Z,9.20
2023-05-04T00:24:44.530Z,9.20
2023-05-04T00:27:18.404Z,9.20
2023-05-04T00:29:52.103Z,9.30
2023-05-04T00:32:25.929Z,9.30
2023-05-04T00:35:01.143Z,9.30
2023-05-04T00:37:35.061Z,9.30
2023-05-04T00:40:12.088Z,9.30
2023-05-04T00:42:46.334Z,9.30
2023-05-04T00:45:20.381Z,9.30
2023-05-04T00:47:54.710Z,9.30
2023-05-04T00:50:29.828Z,9.30
2023-05-04T00:53:09.484Z,9.20
2023-05-04T00:55:45.268Z,9.20
2023-05-04T00:58:19.846Z,9.10
2023-05-04T01:00:54.043Z,9.10
2023-05-04T01:03:28.643Z,9.10
2023-05-04T01:06:15.137Z,9.10
2023-05-04T01:08:57.400Z,9.10
2023-05-04T01:11:41.823Z,9.10
2023-05-04T01:14:16.547Z,9.10
2023-05-04T01:16:51.670Z,9.10
2023-05-04T01:19:27.659Z,9.10
2023-05-04T01:22:02.729Z,9.10
2023-05-04T01:24:36.654Z,9.10
2023-05-04T01:27:17.103Z,9.10
2023-05-04T01:30:01.610Z,9.10
2023-05-04T01:32:37.132Z,9.10
2023-05-04T01:35:12.560Z,9.10
2023-05-04T01:37:47.917Z,9.00
2023-05-04T01:40:21.890Z,9.00
2023-05-04T01:42:56.816Z,9.00
2023-05-04T01:45:30.710Z,9.00
2023-05-04T01:48:04.640Z,9.00
2023-05-04T01:50:39.146Z,9.00
2023-05-04T01:53:14.776Z,8.90
2023-05-04T01:55:48.908Z,8.90
2023-05-04T01:58:23.772Z,8.90
2023-05-04T02:00:59.632Z,8.90
2023-05-04T02:03:37.365Z,9.00
2023-05-04T02:06:18.396Z,9.00
2023-05-04T02:08:59.461Z,9.00
2023-05-04T02:11:36.011Z,9.00
2023-05-04T02:14:10.843Z,9.00
2023-05-04T02:16:58.307Z,9.00
2023-05-04T02:19:41.693Z,9.00
2023-05-04T02:23:37.656Z,9.00
2023-05-04T02:26:16.077Z,9.00
2023-05-04T02:28:51.818Z,9.00
2023-05-04T02:31:26.277Z,9.00
2023-05-04T02:34:00.252Z,9.00
2023-05-04T02:36:33.958Z,9.00
2023-05-04T02:39:08.062Z,9.00
2023-05-04T02:41:43.428Z,9.00
2023-05-04T02:44:17.359Z,9.00
2023-05-04T02:46:51.114Z,9.00
2023-05-04T02:49:24.855Z,9.00
2023-05-04T02:51:58.614Z,9.00
2023-05-04T02:54:32.237Z,9.00
2023-05-04T02:57:07.513Z,9.00
2023-05-04T02:59:41.216Z,8.90
2023-05-04T03:02:14.997Z,8.90
2023-05-04T03:04:48.838Z,8.90
2023-05-04T03:07:22.468Z,8.90
2023-05-04T03:09:56.135Z,8.90
2023-05-04T03:12:31.406Z,8.90
2023-05-04T03:15:05.613Z,8.90
2023-05-04T03:17:39.308Z,8.90
2023-05-04T03:20:14.579Z,9.00
2023-05-04T03:22:49.511Z,9.00
2023-05-04T03:25:23.878Z,9.00
2023-05-04T03:27:59.375Z,9.00
2023-05-04T03:30:33.507Z,9.00
2023-05-04T03:33:09.924Z,9.00
2023-05-04T03:35:49.092Z,9.00
2023-05-04T03:38:25.984Z,9.00
2023-05-04T03:41:03.154Z,9.00
2023-05-04T03:43:38.933Z,9.00
2023-05-04T03:46:16.068Z,9.00
2023-05-04T03:48:50.064Z,9.00
2023-05-04T03:51:27.289Z,9.00
2023-05-04T03:54:04.709Z,9.10
2023-05-04T03:56:40.001Z,9.10
2023-05-04T03:59:18.865Z,9.10
2023-05-04T04:01:55.402Z,9.10
2023-05-04T04:04:32.045Z,9.10
2023-05-04T04:07:06.552Z,9.10
2023-05-04T04:09:41.043Z,9.20
2023-05-04T04:12:16.380Z,9.10
2023-05-04T04:14:53.353Z,9.10
2023-05-04T04:17:28.298Z,9.20
2023-05-04T04:20:03.083Z,9.20
2023-05-04T04:22:37.703Z,9.20
2023-05-04T04:25:12.405Z,9.20
2023-05-04T04:27:46.577Z,9.20
2023-05-04T04:30:22.551Z,9.20
2023-05-04T04:32:57.805Z,9.20
2023-05-04T04:35:33.048Z,9.20
2023-05-04T04:38:07.502Z,9.20
2023-05-04T04:40:42.464Z,9.20
2023-05-04T04:43:16.787Z,9.30
2023-05-04T04:45:53.959Z,9.30
2023-05-04T04:48:27.691Z,9.30
2023-05-04T04:51:01.337Z,9.30
2023-05-04T04:53:34.975Z,9.30
2023-05-04T04:56:09.782Z,9.30
2023-05-04T04:58:43.417Z,9.40
2023-05-04T05:01:19.074Z,9.40
2023-05-04T05:03:52.835Z,9.40
2023-05-04T05:06:26.703Z,9.50
2023-05-04T05:09:00.471Z,9.50
2023-05-04T05:11:34.630Z,9.60
2023-05-04T05:14:08.565Z,9.60
2023-05-04T05:16:43.900Z,9.70
2023-05-04T05:19:17.733Z,9.70
2023-05-04T05:21:51.586Z,9.80
2023-05-04T05:24:25.360Z,9.80
2023-05-04T05:26:59.719Z,9.90
2023-05-04T05:29:33.450Z,9.90
2023-05-04T05:32:09.017Z,9.90
2023-05-04T05:34:42.907Z,10.00
2023-05-04T05:37:16.852Z,10.00
2023-05-04T05:39:51.947Z,10.00
2023-05-04T05:46:44.875Z,10.20
2023-05-04T05:54:30.443Z,10.30
2023-05-04T05:57:12.194Z,10.40
2023-05-04T06:16:30.583Z,10.70
2023-05-04T06:19:05.686Z,10.70
2023-05-04T06:21:40.164Z,10.70
2023-05-04T06:24:16.913Z,10.70
2023-05-04T06:26:51.863Z,10.70
2023-05-04T06:29:34.942Z,10.80
2023-05-04T06:32:24.368Z,10.80
2023-05-04T06:35:17.207Z,10.90
2023-05-04T06:37:57.386Z,10.90
2023-05-04T06:40:38.149Z,11.00
2023-05-04T06:43:16.111Z,11.00
2023-05-04T06:46:00.431Z,11.00
2023-05-04T06:49:05.541Z,11.00
2023-05-04T06:51:57.102Z,11.00
2023-05-04T07:13:47.095Z,10.60
2023-05-04T07:16:20.935Z,10.60
2023-05-04T07:18:54.756Z,10.60
2023-05-04T07:21:29.747Z,10.60
2023-05-04T07:24:04.457Z,10.50
2023-05-04T07:26:38.801Z,10.50
2023-05-04T07:29:14.515Z,10.50
2023-05-04T07:31:49.352Z,10.50
2023-05-04T07:34:37.796Z,10.50
2023-05-04T07:37:17.490Z,10.50
2023-05-04T07:39:53.802Z,10.50
2023-05-04T07:42:29.273Z,10.50
2023-05-04T07:45:08.972Z,10.50
2023-05-04T07:50:39.494Z,10.60
2023-05-04T07:53:20.922Z,10.60
2023-05-04T07:56:02.948Z,10.70
2023-05-04T07:58:47.617Z,10.80
2023-05-04T08:10:01.522Z,11.20
2023-05-04T08:12:45.978Z,11.40
2023-05-04T08:38:04.823Z,12.90
2023-05-04T08:41:48.458Z,13.30
2023-05-04T08:44:45.034Z,13.60
2023-05-04T08:47:48.395Z,13.70
2023-05-04T08:59:03.149Z,14.70
2023-05-04T09:25:03.868Z,15.10
2023-05-04T09:27:41.511Z,15.10
2023-05-04T09:30:23.164Z,15.10
2023-05-04T09:33:05.533Z,15.10
2023-05-04T09:35:57.884Z,15.00
2023-05-04T09:38:35.709Z,15.20
2023-05-04T09:41:09.767Z,15.40
2023-05-04T09:43:46.419Z,15.60
2023-05-04T09:46:21.216Z,15.60
2023-05-04T09:48:56.959Z,15.70
2023-05-04T09:51:30.878Z,15.70
2023-05-04T09:54:05.356Z,15.70
2023-05-04T10:00:24.335Z,15.50
2023-05-04T10:16:49.314Z,14.90
2023-05-04T10:20:01.670Z,15.10
2023-05-04T10:23:01.236Z,15.30
2023-05-04T10:26:36.405Z,15.40
2023-05-04T10:29:23.448Z,15.40
2023-05-04T10:32:28.857Z,15.20
2023-05-04T10:35:11.446Z,15.10
2023-05-04T10:37:54.649Z,15.10
2023-05-04T10:40:39.099Z,15.20
2023-05-04T10:43:27.562Z,15.20
2023-05-04T10:46:02.730Z,15.20
2023-05-04T10:48:36.768Z,15.40
2023-05-04T10:51:26.516Z,15.30
2023-05-04T10:57:58.254Z,15.40
2023-05-04T11:00:58.565Z,15.50
2023-05-04T11:03:41.078Z,15.60
2023-05-04T11:07:11.029Z,15.50
2023-05-04T11:10:25.782Z,15.60
2023-05-04T11:13:06.160Z,15.60
2023-05-04T11:15:48.643Z,15.70
2023-05-04T11:18:31.097Z,15.80
2023-05-04T11:21:05.314Z,15.80
2023-05-04T11:23:40.075Z,15.90
2023-05-04T11:26:16.396Z,15.90
2023-05-04T11:28:50.495Z,16.00
2023-05-04T11:31:24.389Z,16.00
2023-05-04T11:33:58.433Z,16.00
2023-05-04T11:36:32.291Z,16.10
2023-05-04T11:39:08.343Z,16.10
2023-05-04T11:41:44.592Z,16.20
2023-05-04T11:44:20.418Z,16.00
2023-05-04T11:46:56.431Z,16.00
2023-05-04T11:49:31.341Z,16.00
2023-05-04T11:52:09.020Z,16.00
2023-05-04T11:54:46.022Z,16.10
2023-05-04T11:57:27.222Z,16.10
2023-05-04T12:00:14.339Z,16.20
2023-05-04T12:02:48.086Z,16.40
2023-05-04T12:54:40.978Z,17.70
2023-05-04T13:39:15.465Z,17.50
2023-05-04T13:41:52.338Z,17.60
2023-05-04T13:44:31.409Z,17.80
2023-05-04T13:47:06.264Z,17.70
2023-05-04T13:49:40.885Z,17.80
2023-05-04T13:52:15.051Z,17.70
2023-05-04T13:54:50.944Z,17.60
2023-05-04T13:57:28.956Z,17.60
2023-05-04T14:00:07.192Z,17.50
2023-05-04T14:02:46.510Z,17.50
2023-05-04T14:05:21.723Z,17.60
2023-05-04T14:07:56.292Z,17.70
2023-05-04T14:10:31.976Z,17.80
2023-05-04T14:13:06.070Z,17.80
2023-05-04T14:16:02.079Z,17.60
2023-05-04T14:18:37.158Z,17.50
2023-05-04T14:21:12.651Z,17.50
2023-05-04T14:23:47.175Z,17.40
2023-05-04T14:26:23.434Z,17.40
2023-05-04T14:28:57.381Z,17.40
2023-05-04T14:31:31.137Z,17.40
2023-05-04T14:34:04.799Z,17.40
2023-05-04T14:36:38.373Z,17.40
2023-05-04T14:39:12.240Z,17.40
2023-05-04T14:41:48.246Z,17.50
2023-05-04T14:44:24.096Z,17.70
2023-05-04T14:47:07.742Z,17.80
2023-05-04T14:49:59.349Z,18.00
2023-05-04T14:52:36.985Z,18.00
2023-05-04T14:59:40.742Z,17.80
2023-05-04T15:02:14.481Z,17.90
2023-05-04T15:04:48.377Z,17.90
2023-05-04T15:32:17.538Z,17.10
2023-05-04T15:35:03.875Z,17.20
2023-05-04T15:37:39.338Z,17.30
2023-05-04T15:40:15.138Z,17.40
2023-05-04T15:42:48.927Z,17.50
2023-05-04T15:45:23.455Z,17.60
2023-05-04T15:48:00.252Z,17.50
2023-05-04T15:50:34.274Z,17.50
2023-05-04T15:53:08.469Z,17.50
2023-05-04T15:55:42.322Z,17.50
2023-05-04T15:58:15.971Z,17.30
2023-05-04T16:00:49.843Z,17.10
2023-05-04T16:03:24.850Z,17.00
2023-05-04T16:05:58.530Z,17.00
2023-05-04T16:08:32.284Z,16.90
2023-05-04T16:11:07.688Z,16.90
2023-05-04T16:13:41.331Z,16.80
2023-05-04T16:16:14.898Z,16.70
2023-05-04T16:18:49.838Z,16.70
2023-05-04T16:21:24.264Z,16.70
2023-05-04T16:23:57.981Z,16.70
2023-05-04T16:26:31.568Z,16.70
2023-05-04T16:29:05.296Z,16.70
2023-05-04T16:31:39.068Z,16.60
2023-05-04T16:34:14.168Z,16.60
2023-05-04T16:36:47.768Z,16.50
2023-05-04T16:39:21.375Z,16.40
2023-05-04T16:41:54.882Z,16.40
2023-05-04T16:44:28.455Z,16.30
2023-05-04T16:47:02.126Z,16.20
2023-05-04T16:49:37.152Z,16.10
2023-05-04T16:52:10.699Z,16.00
2023-05-04T16:54:44.227Z,15.90
2023-05-04T16:57:17.835Z,15.80
2023-05-04T16:59:51.543Z,15.70
2023-05-04T17:02:25.855Z,15.70
2023-05-04T17:05:01.178Z,15.60
2023-05-04T17:07:34.886Z,15.40
2023-05-04T17:10:09.970Z,15.30
2023-05-04T17:12:43.542Z,15.10
2023-05-04T17:15:17.186Z,15.00
2023-05-04T17:17:50.708Z,14.90
2023-05-04T17:20:30.392Z,14.80
2023-05-04T17:23:04.039Z,14.70
2023-05-04T17:25:38.733Z,14.50
2023-05-04T17:28:12.284Z,14.40
2023-05-04T17:30:46.060Z,14.20
2023-05-04T17:33:19.931Z,14.10
2023-05-04T17:35:55.428Z,14.00
2023-05-04T17:38:30.620Z,13.90
2023-05-04T17:41:04.594Z,13.80
2023-05-04T17:43:38.604Z,13.60
2023-05-04T17:46:13.154Z,13.50
2023-05-04T17:48:47.035Z,13.30
2023-05-04T17:51:23.077Z,13.10
2023-05-04T17:53:56.745Z,13.00
2023-05-04T17:56:30.643Z,12.80
2023-05-04T17:59:04.372Z,12.60
2023-05-04T18:01:38.268Z,12.50
2023-05-04T18:04:12.004Z,12.30
2023-05-04T18:06:49.382Z,12.20
2023-05-04T18:09:24.499Z,12.00
2023-05-04T18:11:58.205Z,11.90
2023-05-04T18:14:32.061Z,11.60
2023-05-04T18:17:06.206Z,11.50
2023-05-04T18:19:40.151Z,11.30
2023-05-04T18:22:15.492Z,11.10
2023-05-04T18:24:49.913Z,11.00
2023-05-04T18:27:23.792Z,10.90
2023-05-04T18:29:57.889Z,10.70
2023-05-04T18:32:31.976Z,10.50
2023-05-04T18:35:07.887Z,10.40
2023-05-04T18:37:44.367Z,10.20
2023-05-04T18:40:20.537Z,10.10
2023-05-04T18:42:57.528Z,9.90
2023-05-04T18:45:32.035Z,9.80
2023-05-04T18:48:08.590Z,9.60
2023-05-04T18:50:42.924Z,9.50
2023-05-04T18:53:18.819Z,9.40
2023-05-04T18:56:03.433Z,9.30
2023-05-04T18:58:39.156Z,9.20
2023-05-04T19:01:13.569Z,9.00
2023-05-04T19:03:48.211Z,9.00
2023-05-04T19:06:22.479Z,8.90
2023-05-04T19:08:58.579Z,8.80
2023-05-04T19:11:32.530Z,8.70
2023-05-04T19:14:09.251Z,8.60
2023-05-04T19:16:44.093Z,8.50
2023-05-04T19:19:19.165Z,8.40
2023-05-04T19:21:53.180Z,8.30
2023-05-04T19:24:29.756Z,8.20
2023-05-04T19:27:04.277Z,8.10
2023-05-04T19:29:38.886Z,8.00
2023-05-04T19:32:23.615Z,7.90
2023-05-04T19:35:00.666Z,7.80
2023-05-04T19:37:35.648Z,7.70
2023-05-04T19:40:12.109Z,7.70
2023-05-04T19:42:46.706Z,7.60
2023-05-04T19:45:23.100Z,7.50
2023-05-04T19:47:57.711Z,7.40
2023-05-04T19:50:31.904Z,7.40
2023-05-04T19:53:06.520Z,7.30
2023-05-04T19:55:41.988Z,7.20
2023-05-04T19:58:16.156Z,7.10
2023-05-04T20:00:50.783Z,7.10
2023-05-04T20:03:26.611Z,7.00
2023-05-04T20:06:01.266Z,7.00
2023-05-04T20:08:35.263Z,6.90
2023-05-04T20:11:10.907Z,6.90
2023-05-04T20:13:44.724Z,6.90
2023-05-04T20:16:20.866Z,6.80
2023-05-04T20:18:55.118Z,6.80
2023-05-04T20:21:29.635Z,6.70
2023-05-04T20:24:08.683Z,6.60
2023-05-04T20:26:45.724Z,6.60
2023-05-04T20:29:19.757Z,6.50
2023-05-04T20:31:54.783Z,6.40
2023-05-04T20:34:29.288Z,6.40
2023-05-04T20:37:04.245Z,6.30
2023-05-04T20:39:38.089Z,6.30
2023-05-04T20:42:13.618Z,6.20
2023-05-04T20:44:47.521Z,6.20
2023-05-04T20:47:21.582Z,6.10
2023-05-04T20:49:58.224Z,6.10
2023-05-04T20:52:32.314Z,6.00
2023-05-04T20:55:07.872Z,5.90
2023-05-04T20:57:43.431Z,5.90
2023-05-04T21:00:18.507Z,5.80
2023-05-04T21:02:52.669Z,5.80
2023-05-04T21:05:28.976Z,5.70
2023-05-04T21:08:02.782Z,5.70
2023-05-04T21:10:36.520Z,5.60
2023-05-04T21:13:11.821Z,5.60
2023-05-04T21:15:45.809Z,5.50
2023-05-04T21:18:19.738Z,5.50
2023-05-04T21:20:53.660Z,5.40
2023-05-04T21:23:27.313Z,5.40
2023-05-04T21:26:04.694Z,5.40
2023-05-04T21:28:39.848Z,5.40
2023-05-04T21:31:13.596Z,5.30
2023-05-04T21:33:47.288Z,5.30
2023-05-04T21:36:21.929Z,5.30
2023-05-04T21:38:56.126Z,5.20
2023-05-04T21:41:29.680Z,5.20
2023-05-04T21:44:04.876Z,5.20
2023-05-04T21:46:38.403Z,5.10
2023-05-04T21:49:11.934Z,5.10
2023-05-04T21:51:45.439Z,5.10
2023-05-04T21:54:18.959Z,5.10
2023-05-04T21:56:53.452Z,5.10
2023-05-04T21:59:28.560Z,5.00
2023-05-04T22:02:03.382Z,5.00
2023-05-04T22:04:37.417Z,5.00
2023-05-04T22:07:11.332Z,4.90
2023-05-04T22:09:44.840Z,4.90
2023-05-04T22:12:18.303Z,4.80
2023-05-04T22:14:53.161Z,4.80
2023-05-04T22:17:26.807Z,4.80
2023-05-04T22:20:00.292Z,4.80
2023-05-04T22:22:33.949Z,4.70
2023-05-04T22:25:08.253Z,4.70
2023-05-04T22:27:41.741Z,4.70
2023-05-04T22:30:17.654Z,4.70
2023-05-04T22:32:52.093Z,4.60
2023-05-04T22:35:25.720Z,4.50
2023-05-04T22:37:59.356Z,4.50
2023-05-04T22:40:32.920Z,4.50
2023-05-04T22:43:06.889Z,4.40
2023-05-04T22:45:41.835Z,4.40
2023-05-04T22:48:15.402Z,4.30
2023-05-04T22:50:49.614Z,4.30
2023-05-04T22:53:23.461Z,4.20
2023-05-04T22:55:56.935Z,4.20
2023-05-04T22:58:30.683Z,4.20
2023-05-04T23:01:10.313Z,4.10
2023-05-04T23:03:45.216Z,4.10
2023-05-04T23:06:19.010Z,4.10
2023-05-04T23:08:52.508Z,4.10
2023-05-04T23:11:25.990Z,4.00
2023-05-04T23:13:59.473Z,4.00
2023-05-04T23:16:34.500Z,3.90
2023-05-04T23:19:08.039Z,3.90
2023-05-04T23:21:41.613Z,3.90
2023-05-04T23:24:15.258Z,3.90
2023-05-04T23:26:48.870Z,3.80
2023-05-04T23:29:22.500Z,3.80
2023-05-04T23:31:57.506Z,3.80
2023-05-04T23:34:31.183Z,3.70
2023-05-04T23:37:04.765Z,3.70
2023-05-04T23:39:38.273Z,3.60
2023-05-04T23:42:11.798Z,3.60
2023-05-04T23:44:45.264Z,3.60
2023-05-04T23:47:20.148Z,3.50
2023-05-04T23:49:53.652Z,3.50
2023-05-04T23:52:27.159Z,3.40
2023-05-04T23:55:00.841Z,3.40
2023-05-04T23:57:34.286Z,3.40
